Time;durP1;ratioP1;P1;durP2;ratioP2;P2;SDS_P1;SDS_P2;PMS_P1;PMS_P2;Temp;Humidity;BMP_temperature;BMP_pressure;BME280_temperature;BME280_humidity;BME280_pressure;Samples;Min_cycle;Max_cycle;Signal;HPM_P1;HPM_P2
2022/06/25 00:00:47;;;;;;;1.20;1.00;;;;;;;;;;5029625;28;20201;-32
2022/06/25 00:03:17;;;;;;;1.00;1.00;;;;;;;;;;5027315;28;20206;-33
2022/06/25 00:05:45;;;;;;;1.67;0.87;;;;;;;;;;5029274;28;20215;-30
2022/06/25 00:08:12;;;;;;;1.13;1.13;;;;;;;;;;5030378;28;20255;-32
2022/06/25 00:10:40;;;;;;;4.40;1.50;;;;;;;;;;5030116;28;20236;-33
2022/06/25 00:13:06;;;;;;;4.07;1.50;;;;;;;;;;5024648;28;20270;-31
2022/06/25 00:15:33;;;;;;;3.00;1.30;;;;;;;;;;5024861;28;20200;-34
2022/06/25 00:18:00;;;;;;;2.60;1.33;;;;;;;;;;5020978;28;20260;-33
2022/06/25 00:20:27;;;;;;;7.23;1.50;;;;;;;;;;5026027;28;20195;-32
2022/06/25 00:22:56;;;;;;;3.57;1.30;;;;;;;;;;5029967;28;20205;-31
2022/06/25 00:25:23;;;;;;;1.10;1.00;;;;;;;;;;5026435;28;20204;-32
2022/06/25 00:30:18;;;;;;;3.93;1.40;;;;;;;;;;5029338;28;20488;-43
2022/06/25 00:32:45;;;;;;;3.47;1.27;;;;;;;;;;5029537;28;20208;-46
2022/06/25 00:35:13;;;;;;;1.70;0.90;;;;;;;;;;5027204;28;20211;-42
2022/06/25 00:37:40;;;;;;;1.30;1.20;;;;;;;;;;5029720;28;20277;-44
2022/06/25 00:40:09;;;;;;;3.70;1.20;;;;;;;;;;5026668;28;20205;-45
2022/06/25 00:42:37;;;;;;;2.33;1.23;;;;;;;;;;5016421;28;20374;-44
2022/06/25 00:45:04;;;;;;;1.30;1.20;;;;;;;;;;5030612;28;20304;-47
2022/06/25 00:47:31;;;;;;;3.90;1.00;;;;;;;;;;5027838;28;20251;-47
2022/06/25 00:49:58;;;;;;;1.10;1.00;;;;;;;;;;5029313;28;20228;-42
2022/06/25 00:52:26;;;;;;;2.87;2.10;;;;;;;;;;5033342;28;20201;-39
2022/06/25 00:54:55;;;;;;;2.20;1.00;;;;;;;;;;5032999;28;20243;-42
2022/06/25 00:57:24;;;;;;;1.03;0.90;;;;;;;;;;5022014;28;20212;-42
2022/06/25 00:59:52;;;;;;;0.87;0.83;;;;;;;;;;5032450;28;20209;-43
2022/06/25 01:02:20;;;;;;;1.43;0.90;;;;;;;;;;5023548;28;20601;-43
2022/06/25 01:04:47;;;;;;;1.57;1.10;;;;;;;;;;5026360;28;20210;-46
2022/06/25 01:07:15;;;;;;;1.17;1.07;;;;;;;;;;5031481;28;20225;-43
2022/06/25 01:09:42;;;;;;;1.00;1.00;;;;;;;;;;5031240;28;20225;-42
2022/06/25 01:12:10;;;;;;;3.33;1.47;;;;;;;;;;5022572;28;20282;-42
2022/06/25 01:14:38;;;;;;;3.77;2.00;;;;;;;;;;5029835;28;20214;-44
2022/06/25 01:17:06;;;;;;;2.97;2.10;;;;;;;;;;5031547;28;20224;-43
2022/06/25 01:19:33;;;;;;;1.40;1.30;;;;;;;;;;5020315;28;20215;-44
2022/06/25 01:22:03;;;;;;;2.47;1.77;;;;;;;;;;5033754;28;20202;-42
2022/06/25 01:24:31;;;;;;;3.40;1.67;;;;;;;;;;5034421;28;20204;-46
2022/06/25 01:26:58;;;;;;;6.90;1.90;;;;;;;;;;5025292;28;20231;-46
2022/06/25 01:29:25;;;;;;;1.40;1.30;;;;;;;;;;5022515;28;20711;-44
2022/06/25 01:31:52;;;;;;;3.40;1.37;;;;;;;;;;5031807;28;20265;-40
2022/06/25 01:34:19;;;;;;;5.13;1.03;;;;;;;;;;5018484;28;20196;-44
2022/06/25 01:36:47;;;;;;;8.57;1.73;;;;;;;;;;5031490;28;20233;-44
2022/06/25 01:39:15;;;;;;;1.90;1.80;;;;;;;;;;5032422;28;20218;-44
2022/06/25 01:41:42;;;;;;;16.00;1.97;;;;;;;;;;5019902;28;20218;-43
2022/06/25 01:44:09;;;;;;;1.73;1.63;;;;;;;;;;5031647;28;20201;-41
2022/06/25 01:46:36;;;;;;;1.87;1.70;;;;;;;;;;5032069;28;20706;-40
2022/06/25 01:49:03;;;;;;;1.80;1.70;;;;;;;;;;5021829;28;20200;-46
2022/06/25 01:51:31;;;;;;;1.00;0.90;;;;;;;;;;5028825;28;20213;-43
2022/06/25 01:53:58;;;;;;;1.10;1.10;;;;;;;;;;5032007;28;20205;-44
2022/06/25 01:56:26;;;;;;;1.83;1.50;;;;;;;;;;5020273;28;20249;-45
2022/06/25 01:58:53;;;;;;;1.60;1.50;;;;;;;;;;5028934;28;20773;-39
2022/06/25 02:01:20;;;;;;;4.27;1.93;;;;;;;;;;5032085;28;20196;-46
2022/06/25 02:03:48;;;;;;;1.73;1.63;;;;;;;;;;5024256;28;20564;-44
2022/06/25 02:06:15;;;;;;;1.47;1.37;;;;;;;;;;5028746;28;20229;-44
2022/06/25 02:08:42;;;;;;;3.00;1.47;;;;;;;;;;5031726;28;20215;-42
2022/06/25 02:11:10;;;;;;;2.60;1.50;;;;;;;;;;5032839;28;20235;-43
2022/06/25 02:13:38;;;;;;;1.27;1.27;;;;;;;;;;5021620;28;20218;-44
2022/06/25 02:16:06;;;;;;;1.50;1.17;;;;;;;;;;5032013;28;20216;-41
2022/06/25 02:18:34;;;;;;;3.53;1.50;;;;;;;;;;5025918;28;20208;-41
2022/06/25 02:21:01;;;;;;;1.30;1.30;;;;;;;;;;5028495;28;20212;-45
2022/06/25 02:23:28;;;;;;;1.50;1.40;;;;;;;;;;5031644;28;20204;-41
2022/06/25 02:25:55;;;;;;;3.07;1.20;;;;;;;;;;5027680;28;20208;-41
2022/06/25 02:28:22;;;;;;;1.10;1.10;;;;;;;;;;5026191;28;20563;-39
2022/06/25 02:30:51;;;;;;;1.10;1.10;;;;;;;;;;5031511;28;20212;-45
2022/06/25 02:33:19;;;;;;;5.23;1.30;;;;;;;;;;5026611;28;20199;-41
2022/06/25 02:35:46;;;;;;;1.60;1.10;;;;;;;;;;5030650;28;20212;-44
2022/06/25 02:38:14;;;;;;;1.10;1.10;;;;;;;;;;5031275;28;20204;-44
2022/06/25 02:40:41;;;;;;;1.10;0.90;;;;;;;;;;5031790;28;20208;-44
2022/06/25 02:43:08;;;;;;;0.90;0.90;;;;;;;;;;5024881;28;20201;-42
2022/06/25 02:45:35;;;;;;;1.80;0.80;;;;;;;;;;5030558;28;20206;-43
2022/06/25 02:48:04;;;;;;;1.57;1.00;;;;;;;;;;5025542;28;20299;-44
2022/06/25 02:50:31;;;;;;;4.00;1.27;;;;;;;;;;5027492;28;20231;-44
2022/06/25 02:53:15;;;;;;;3.07;1.13;;;;;;;;;;5031803;28;20204;-43
2022/06/25 03:01:12;;;;;;;1.30;1.10;;;;;;;;;;5030913;28;20214;-43
2022/06/25 03:03:40;;;;;;;2.20;1.00;;;;;;;;;;5018512;28;20215;-46
2022/06/25 03:06:07;;;;;;;1.57;1.20;;;;;;;;;;5027334;28;20223;-43
2022/06/25 03:08:35;;;;;;;1.10;0.90;;;;;;;;;;5030668;28;20215;-42
2022/06/25 03:11:03;;;;;;;1.60;1.50;;;;;;;;;;5030702;28;20315;-45
2022/06/25 03:13:32;;;;;;;1.20;1.10;;;;;;;;;;5024346;28;20200;-43
2022/06/25 03:15:59;;;;;;;1.27;1.17;;;;;;;;;;5025151;28;20276;-45
2022/06/25 03:18:26;;;;;;;1.70;1.10;;;;;;;;;;5024781;28;20198;-43
2022/06/25 03:20:55;;;;;;;1.17;1.07;;;;;;;;;;5027094;28;20294;-43
2022/06/25 03:23:22;;;;;;;3.77;1.40;;;;;;;;;;5031060;28;20558;-43
2022/06/25 03:25:50;;;;;;;1.90;1.23;;;;;;;;;;5026474;28;20230;-42
2022/06/25 03:28:17;;;;;;;4.07;1.30;;;;;;;;;;5026172;28;20212;-40
2022/06/25 03:30:44;;;;;;;9.53;1.10;;;;;;;;;;5029983;28;20221;-41
2022/06/25 03:33:11;;;;;;;2.20;1.10;;;;;;;;;;5020621;28;20223;-44
2022/06/25 03:35:39;;;;;;;0.90;0.90;;;;;;;;;;5029502;28;20310;-43
2022/06/25 03:38:07;;;;;;;2.80;1.10;;;;;;;;;;5030055;28;20203;-42
2022/06/25 03:40:34;;;;;;;1.87;1.07;;;;;;;;;;5027169;28;20208;-44
2022/06/25 03:43:01;;;;;;;2.30;1.10;;;;;;;;;;5031466;28;20212;-40
2022/06/25 03:45:28;;;;;;;2.53;1.30;;;;;;;;;;5031929;28;20208;-38
2022/06/25 03:47:56;;;;;;;13.37;1.40;;;;;;;;;;5027977;28;20233;-38
2022/06/25 03:50:23;;;;;;;1.57;1.23;;;;;;;;;;5026073;28;20225;-39
2022/06/25 03:52:51;;;;;;;1.37;1.03;;;;;;;;;;5032158;28;20206;-38
2022/06/25 03:55:19;;;;;;;1.60;1.50;;;;;;;;;;5032380;28;20214;-42
2022/06/25 03:57:47;;;;;;;4.13;1.63;;;;;;;;;;5016928;28;20227;-41
2022/06/25 04:00:15;;;;;;;3.20;1.20;;;;;;;;;;5032135;28;20206;-40
2022/06/25 04:02:42;;;;;;;6.50;1.00;;;;;;;;;;5029468;28;20207;-41
2022/06/25 04:05:09;;;;;;;0.87;0.87;;;;;;;;;;5031893;28;20215;-43
2022/06/25 04:07:36;;;;;;;2.20;1.00;;;;;;;;;;5031829;28;20219;-43
2022/06/25 04:10:03;;;;;;;3.73;1.03;;;;;;;;;;5032126;28;20234;-43
2022/06/25 04:12:32;;;;;;;1.67;1.20;;;;;;;;;;5021969;28;20230;-41
2022/06/25 04:14:59;;;;;;;20.67;2.43;;;;;;;;;;5024298;28;20204;-37
2022/06/25 04:17:26;;;;;;;2.60;1.20;;;;;;;;;;5030055;28;20232;-44
2022/06/25 04:19:53;;;;;;;1.40;1.30;;;;;;;;;;5029128;28;20206;-40
2022/06/25 04:22:20;;;;;;;2.57;1.10;;;;;;;;;;5036132;28;20222;-44
2022/06/25 04:24:47;;;;;;;2.30;1.23;;;;;;;;;;5035865;28;20713;-41
2022/06/25 04:29:57;;;;;;;2.40;0.83;;;;;;;;;;5034424;28;20222;-37
2022/06/25 04:32:24;;;;;;;0.80;0.80;;;;;;;;;;5032343;28;20204;-41
2022/06/25 04:34:51;;;;;;;0.60;0.60;;;;;;;;;;5035039;28;20212;-41
2022/06/25 04:37:18;;;;;;;1.00;0.70;;;;;;;;;;5035556;28;20222;-42
2022/06/25 04:39:45;;;;;;;0.87;0.87;;;;;;;;;;5036341;28;20289;-41
2022/06/25 04:42:12;;;;;;;0.90;0.90;;;;;;;;;;5031944;28;20217;-42
2022/06/25 04:44:39;;;;;;;0.80;0.80;;;;;;;;;;5022636;28;20208;-43
2022/06/25 04:47:09;;;;;;;0.80;0.80;;;;;;;;;;5034001;28;20231;-38
2022/06/25 04:49:36;;;;;;;0.90;0.90;;;;;;;;;;5026194;28;20212;-39
2022/06/25 04:52:03;;;;;;;2.40;0.90;;;;;;;;;;5034703;28;20430;-40
2022/06/25 04:54:30;;;;;;;0.90;0.90;;;;;;;;;;5035911;28;20210;-41
2022/06/25 04:56:57;;;;;;;0.93;0.93;;;;;;;;;;5030836;28;20293;-39
2022/06/25 04:59:24;;;;;;;3.10;1.30;;;;;;;;;;5035136;28;20203;-40
2022/06/25 05:01:52;;;;;;;1.17;1.17;;;;;;;;;;5035347;28;20204;-38
2022/06/25 05:04:21;;;;;;;1.20;1.20;;;;;;;;;;5025192;28;20234;-43
2022/06/25 05:06:48;;;;;;;1.30;1.20;;;;;;;;;;5034886;28;20224;-41
2022/06/25 05:09:15;;;;;;;3.43;1.10;;;;;;;;;;5035619;28;20218;-39
2022/06/25 05:11:43;;;;;;;1.10;1.10;;;;;;;;;;5029440;28;20221;-40
2022/06/25 05:14:10;;;;;;;1.20;1.10;;;;;;;;;;5027961;28;20200;-41
2022/06/25 05:16:37;;;;;;;1.20;1.10;;;;;;;;;;5034916;28;20311;-43
2022/06/25 05:19:04;;;;;;;1.40;1.30;;;;;;;;;;5031222;28;20204;-40
2022/06/25 05:21:33;;;;;;;1.57;1.23;;;;;;;;;;5031655;28;20212;-45
2022/06/25 05:24:01;;;;;;;0.93;0.93;;;;;;;;;;5034880;28;20308;-41
2022/06/25 05:26:28;;;;;;;1.10;1.10;;;;;;;;;;5029415;28;20229;-40
2022/06/25 05:28:56;;;;;;;0.90;0.90;;;;;;;;;;5025020;28;20217;-44
2022/06/25 05:31:23;;;;;;;2.73;1.10;;;;;;;;;;5032930;28;20219;-44
2022/06/25 05:33:50;;;;;;;1.37;1.23;;;;;;;;;;5025023;28;20217;-45
2022/06/25 05:36:17;;;;;;;2.57;0.90;;;;;;;;;;5034207;28;20222;-40
2022/06/25 05:38:46;;;;;;;1.07;1.07;;;;;;;;;;5035022;28;20198;-41
2022/06/25 05:41:13;;;;;;;1.00;1.00;;;;;;;;;;5034362;28;20205;-45
2022/06/25 05:43:40;;;;;;;1.25;1.15;;;;;;;;;;5030367;28;20213;-41
2022/06/25 05:46:08;;;;;;;1.20;1.10;;;;;;;;;;5028496;28;20222;-44
2022/06/25 05:48:35;;;;;;;2.08;1.30;;;;;;;;;;5025871;28;20203;-43
2022/06/25 05:51:02;;;;;;;1.15;1.15;;;;;;;;;;5034057;28;20227;-40
2022/06/25 05:53:32;;;;;;;1.13;0.85;;;;;;;;;;5033546;28;20206;-39
2022/06/25 05:56:00;;;;;;;1.40;1.30;;;;;;;;;;5034682;28;20276;-45
2022/06/25 05:58:28;;;;;;;1.38;1.25;;;;;;;;;;5022904;28;20237;-40
2022/06/25 06:00:55;;;;;;;0.90;0.90;;;;;;;;;;5032237;28;20200;-44
2022/06/25 06:03:22;;;;;;;0.85;0.85;;;;;;;;;;5029807;28;20213;-42
2022/06/25 06:05:49;;;;;;;1.17;0.98;;;;;;;;;;5028996;28;20208;-44
2022/06/25 06:08:17;;;;;;;2.15;0.88;;;;;;;;;;5032620;28;20214;-44
2022/06/25 06:10:44;;;;;;;2.47;1.00;;;;;;;;;;5033897;28;20305;-42
2022/06/25 06:13:12;;;;;;;2.40;1.00;;;;;;;;;;5023262;28;20204;-41
2022/06/25 06:15:40;;;;;;;0.88;0.88;;;;;;;;;;5023409;28;20211;-41
2022/06/25 06:18:08;;;;;;;1.17;1.08;;;;;;;;;;5025119;28;20223;-44
2022/06/25 06:20:39;;;;;;;1.20;0.98;;;;;;;;;;5030968;28;20208;-47
2022/06/25 06:23:06;;;;;;;0.88;0.88;;;;;;;;;;5034190;28;20295;-42
2022/06/25 06:25:33;;;;;;;1.00;0.90;;;;;;;;;;5034194;28;20215;-41
2022/06/25 06:28:00;;;;;;;0.85;0.85;;;;;;;;;;5288457;22;20232;-29
2022/06/25 06:30:29;;;;;;;0.80;0.80;;;;;;;;;;5047635;28;20199;-27
2022/06/25 06:32:56;;;;;;;0.60;0.60;;;;;;;;;;5044327;28;20553;-29
2022/06/25 06:35:23;;;;;;;1.52;1.00;;;;;;;;;;5036468;28;20213;-34
2022/06/25 06:37:50;;;;;;;0.80;0.80;;;;;;;;;;5042375;28;20231;-30
2022/06/25 06:40:18;;;;;;;1.40;0.75;;;;;;;;;;5051638;28;20214;-30
2022/06/25 06:42:45;;;;;;;1.15;0.70;;;;;;;;;;5045727;28;20210;-31
2022/06/25 06:45:12;;;;;;;0.90;0.90;;;;;;;;;;5030757;28;20211;-30
2022/06/25 06:47:41;;;;;;;2.15;0.93;;;;;;;;;;5037562;28;20236;-32
2022/06/25 06:50:10;;;;;;;1.13;1.00;;;;;;;;;;5033473;28;20263;-30
2022/06/25 06:52:38;;;;;;;1.50;1.00;;;;;;;;;;5047969;28;20224;-30
2022/06/25 06:55:05;;;;;;;1.00;1.00;;;;;;;;;;5050950;28;20216;-32
2022/06/25 06:57:32;;;;;;;2.38;0.88;;;;;;;;;;5034615;28;20226;-34
2022/06/25 06:59:59;;;;;;;5.68;1.20;;;;;;;;;;5042846;28;20240;-29
2022/06/25 07:02:27;;;;;;;0.93;0.70;;;;;;;;;;5033743;28;20209;-31
2022/06/25 07:04:55;;;;;;;1.25;0.75;;;;;;;;;;5036710;28;20240;-28
2022/06/25 07:07:22;;;;;;;0.70;0.70;;;;;;;;;;5043787;28;20224;-30
2022/06/25 07:09:49;;;;;;;2.28;0.80;;;;;;;;;;5030127;28;20212;-30
2022/06/25 07:12:16;;;;;;;1.08;0.90;;;;;;;;;;5049075;28;20228;-31
2022/06/25 07:14:43;;;;;;;0.80;0.80;;;;;;;;;;5042763;28;20206;-30
2022/06/25 07:17:11;;;;;;;1.10;1.00;;;;;;;;;;5048445;28;20247;-29
2022/06/25 07:19:38;;;;;;;1.55;0.77;;;;;;;;;;5035265;28;20222;-31
2022/06/25 07:22:06;;;;;;;2.95;1.20;;;;;;;;;;5045776;28;20218;-32
2022/06/25 07:24:33;;;;;;;1.10;0.77;;;;;;;;;;5030271;28;20213;-30
2022/06/25 07:27:00;;;;;;;2.22;0.95;;;;;;;;;;5039021;28;20587;-31
2022/06/25 07:29:30;;;;;;;0.70;0.70;;;;;;;;;;5040292;28;20198;-28
2022/06/25 07:31:57;;;;;;;1.25;1.00;;;;;;;;;;5050778;28;20240;-28
2022/06/25 07:34:25;;;;;;;0.82;0.82;;;;;;;;;;5031340;28;20198;-30
2022/06/25 07:36:52;;;;;;;0.75;0.70;;;;;;;;;;5040867;28;20233;-32
2022/06/25 07:39:20;;;;;;;0.70;0.70;;;;;;;;;;5030891;28;20219;-33
2022/06/25 07:41:47;;;;;;;0.70;0.70;;;;;;;;;;5036418;28;20212;-30
2022/06/25 07:44:14;;;;;;;0.50;0.50;;;;;;;;;;5049895;28;20261;-31
2022/06/25 07:46:41;;;;;;;0.60;0.60;;;;;;;;;;5050812;28;20221;-33
2022/06/25 07:49:09;;;;;;;1.05;0.73;;;;;;;;;;5041241;28;20285;-29
2022/06/25 07:54:23;;;;;;;0.80;0.80;;;;;;;;;;5030253;28;20321;-33
2022/06/25 07:56:51;;;;;;;0.82;0.80;;;;;;;;;;5031070;28;20221;-30
2022/06/25 07:59:18;;;;;;;1.98;0.70;;;;;;;;;;5050691;28;20287;-30
2022/06/25 08:01:45;;;;;;;0.80;0.70;;;;;;;;;;5040928;28;20537;-29
2022/06/25 08:04:12;;;;;;;1.85;1.10;;;;;;;;;;5038096;28;20216;-32
2022/06/25 08:06:41;;;;;;;1.17;0.95;;;;;;;;;;5046457;28;20230;-30
2022/06/25 08:09:08;;;;;;;2.78;0.90;;;;;;;;;;5029891;28;20232;-32
2022/06/25 08:11:37;;;;;;;1.35;0.93;;;;;;;;;;5029894;28;20500;-30
2022/06/25 08:14:04;;;;;;;0.93;0.90;;;;;;;;;;5033660;28;20212;-30
2022/06/25 08:16:31;;;;;;;1.10;0.80;;;;;;;;;;5050616;28;20223;-33
2022/06/25 08:18:58;;;;;;;1.08;0.88;;;;;;;;;;5041016;28;20205;-29
2022/06/25 08:21:26;;;;;;;2.45;0.90;;;;;;;;;;5041026;28;20202;-30
2022/06/25 08:23:53;;;;;;;1.63;0.95;;;;;;;;;;5050199;28;20218;-31
2022/06/25 08:26:21;;;;;;;0.95;0.93;;;;;;;;;;5047931;28;20227;-32
2022/06/25 08:28:49;;;;;;;0.77;0.77;;;;;;;;;;5046416;28;20219;-31
2022/06/25 08:31:16;;;;;;;1.20;1.05;;;;;;;;;;5035675;28;20209;-27
2022/06/25 08:33:44;;;;;;;1.52;1.00;;;;;;;;;;5037805;28;20208;-28
2022/06/25 08:36:11;;;;;;;0.80;0.80;;;;;;;;;;5033435;28;20270;-33
2022/06/25 08:38:38;;;;;;;1.65;1.02;;;;;;;;;;5030565;28;20216;-31
2022/06/25 08:41:06;;;;;;;1.13;1.08;;;;;;;;;;5030297;28;20210;-29
2022/06/25 08:43:33;;;;;;;0.88;0.88;;;;;;;;;;5044379;28;20199;-30
2022/06/25 08:46:01;;;;;;;1.23;0.95;;;;;;;;;;5048852;28;20293;-30
2022/06/25 08:48:31;;;;;;;2.00;0.90;;;;;;;;;;5033662;28;20568;-31
2022/06/25 08:51:00;;;;;;;1.63;0.80;;;;;;;;;;5040548;28;20215;-33
2022/06/25 08:53:31;;;;;;;0.98;0.98;;;;;;;;;;5046267;28;20225;-30
2022/06/25 08:55:59;;;;;;;0.98;0.98;;;;;;;;;;5050019;28;20231;-33
2022/06/25 08:58:26;;;;;;;1.00;1.00;;;;;;;;;;5037195;28;20489;-31
2022/06/25 09:00:53;;;;;;;3.50;1.27;;;;;;;;;;5041330;28;20207;-30
2022/06/25 09:03:21;;;;;;;0.98;0.98;;;;;;;;;;5042836;28;20200;-29
2022/06/25 09:05:48;;;;;;;1.85;1.10;;;;;;;;;;5046162;28;20208;-30
2022/06/25 09:08:17;;;;;;;1.90;1.10;;;;;;;;;;5039658;28;20211;-28
2022/06/25 09:10:45;;;;;;;1.67;1.10;;;;;;;;;;5033082;28;20218;-31
2022/06/25 09:13:13;;;;;;;1.00;1.00;;;;;;;;;;5040018;28;20227;-29
2022/06/25 09:15:41;;;;;;;2.25;1.13;;;;;;;;;;5046549;28;20220;-30
2022/06/25 09:18:09;;;;;;;1.85;1.10;;;;;;;;;;5040015;28;20214;-30
2022/06/25 09:20:37;;;;;;;1.50;1.23;;;;;;;;;;5036101;28;20297;-33
2022/06/25 09:23:06;;;;;;;1.52;1.10;;;;;;;;;;5053306;28;20202;-31
2022/06/25 09:25:34;;;;;;;2.08;1.40;;;;;;;;;;5052930;28;20213;-34
2022/06/25 09:28:01;;;;;;;1.83;1.30;;;;;;;;;;5040578;28;20242;-32
2022/06/25 09:30:30;;;;;;;2.38;1.15;;;;;;;;;;5040451;28;20209;-30
2022/06/25 09:32:58;;;;;;;5.00;1.15;;;;;;;;;;5050621;28;20231;-30
2022/06/25 09:35:35;;;;;;;1.92;1.17;;;;;;;;;;5047216;28;20205;-29
2022/06/25 09:38:04;;;;;;;1.80;1.27;;;;;;;;;;5052897;28;20372;-32
2022/06/25 09:40:32;;;;;;;1.83;1.00;;;;;;;;;;5053730;28;20199;-32
2022/06/25 09:42:59;;;;;;;1.35;1.10;;;;;;;;;;5045335;28;20207;-32
2022/06/25 09:45:26;;;;;;;2.35;1.40;;;;;;;;;;5041501;28;20315;-33
2022/06/25 09:47:56;;;;;;;1.38;1.30;;;;;;;;;;5047418;28;20235;-31
2022/06/25 09:50:23;;;;;;;2.75;1.02;;;;;;;;;;5047128;28;20204;-32
2022/06/25 09:52:51;;;;;;;2.25;1.17;;;;;;;;;;5042412;28;20228;-30
2022/06/25 09:55:20;;;;;;;1.33;0.98;;;;;;;;;;5032671;28;20207;-30
2022/06/25 09:57:48;;;;;;;1.27;1.17;;;;;;;;;;5033903;28;20229;-27
2022/06/25 10:00:16;;;;;;;1.10;1.10;;;;;;;;;;5038251;28;20215;-32
2022/06/25 10:02:43;;;;;;;1.92;1.00;;;;;;;;;;5047729;28;20262;-30
2022/06/25 10:05:11;;;;;;;3.65;1.55;;;;;;;;;;5043680;28;20209;-28
2022/06/25 10:10:25;;;;;;;1.75;1.05;;;;;;;;;;5033703;28;20206;-29
2022/06/25 10:12:52;;;;;;;1.52;1.10;;;;;;;;;;5043937;28;20233;-30
2022/06/25 10:15:21;;;;;;;1.95;1.48;;;;;;;;;;5052166;28;20290;-30
2022/06/25 10:17:51;;;;;;;2.35;1.30;;;;;;;;;;5042970;28;20228;-30
2022/06/25 10:20:19;;;;;;;2.38;1.38;;;;;;;;;;5040242;28;20566;-31
2022/06/25 10:22:47;;;;;;;1.13;1.10;;;;;;;;;;5041874;28;20200;-32
2022/06/25 10:25:15;;;;;;;3.15;1.15;;;;;;;;;;5031685;28;20231;-28
2022/06/25 10:27:44;;;;;;;1.30;1.20;;;;;;;;;;5038225;28;20235;-30
2022/06/25 10:30:12;;;;;;;3.22;1.30;;;;;;;;;;5040670;28;20650;-29
2022/06/25 10:32:45;;;;;;;1.20;1.10;;;;;;;;;;5044928;28;20230;-33
2022/06/25 10:35:28;;;;;;;1.27;1.20;;;;;;;;;;5043064;28;20202;-29
2022/06/25 10:38:02;;;;;;;1.67;1.10;;;;;;;;;;5051155;28;20695;-31
2022/06/25 10:40:30;;;;;;;1.35;1.25;;;;;;;;;;5047130;28;20221;-31
2022/06/25 10:43:01;;;;;;;1.20;1.10;;;;;;;;;;5041050;28;20212;-27
2022/06/25 10:45:49;;;;;;;3.03;1.10;;;;;;;;;;5051165;28;20289;-30
2022/06/25 10:48:16;;;;;;;1.52;1.40;;;;;;;;;;5048226;28;20202;-30
2022/06/25 10:50:49;;;;;;;2.25;1.23;;;;;;;;;;5042536;28;20260;-29
2022/06/25 10:53:17;;;;;;;5.75;1.33;;;;;;;;;;5051181;28;20227;-32
2022/06/25 10:55:59;;;;;;;2.33;1.15;;;;;;;;;;5050872;28;20300;-30
2022/06/25 10:58:29;;;;;;;2.25;1.10;;;;;;;;;;5044625;28;20271;-31
2022/06/25 11:00:57;;;;;;;1.83;1.40;;;;;;;;;;5047550;28;20206;-32
2022/06/25 11:03:39;;;;;;;0.90;0.90;;;;;;;;;;5033658;28;20208;-28
2022/06/25 11:06:18;;;;;;;1.67;1.20;;;;;;;;;;5046022;28;20228;-31
2022/06/25 11:08:45;;;;;;;1.52;1.33;;;;;;;;;;5051096;28;20190;-31
2022/06/25 11:11:13;;;;;;;1.83;1.30;;;;;;;;;;5050752;28;20206;-27
2022/06/25 11:13:42;;;;;;;1.45;1.25;;;;;;;;;;5037794;28;20234;-29
2022/06/25 11:16:16;;;;;;;1.20;1.10;;;;;;;;;;5043977;28;20225;-31
2022/06/25 11:18:47;;;;;;;3.42;1.20;;;;;;;;;;5045622;28;20209;-31
2022/06/25 11:21:25;;;;;;;2.72;1.02;;;;;;;;;;5039109;28;20207;-30
2022/06/25 11:23:52;;;;;;;2.75;1.20;;;;;;;;;;5050613;28;20202;-33
2022/06/25 11:29:06;;;;;;;1.23;1.23;;;;;;;;;;5034764;28;20212;-30
2022/06/25 11:31:35;;;;;;;2.03;1.20;;;;;;;;;;5050281;28;20212;-29
2022/06/25 11:34:03;;;;;;;3.17;1.33;;;;;;;;;;5039989;28;20218;-31
2022/06/25 11:36:34;;;;;;;1.27;1.15;;;;;;;;;;5050312;28;20241;-31
2022/06/25 11:39:01;;;;;;;1.50;1.30;;;;;;;;;;5032823;28;20742;-31
2022/06/25 11:41:29;;;;;;;2.28;1.30;;;;;;;;;;5035548;28;20229;-32
2022/06/25 11:43:57;;;;;;;2.22;1.17;;;;;;;;;;5046065;28;20227;-29
2022/06/25 11:46:25;;;;;;;1.27;1.13;;;;;;;;;;5045695;28;20227;-28
2022/06/25 11:48:53;;;;;;;1.10;1.10;;;;;;;;;;5036551;28;20198;-32
2022/06/25 11:51:24;;;;;;;1.85;1.17;;;;;;;;;;5035857;28;20206;-29
2022/06/25 11:53:52;;;;;;;1.48;1.30;;;;;;;;;;5049839;28;20233;-30
2022/06/25 11:56:19;;;;;;;1.15;1.15;;;;;;;;;;5045350;28;20321;-27
2022/06/25 11:58:46;;;;;;;1.33;1.00;;;;;;;;;;5031427;28;20215;-31
2022/06/25 12:01:14;;;;;;;2.08;1.30;;;;;;;;;;5049796;28;20207;-33
2022/06/25 12:03:42;;;;;;;1.30;1.20;;;;;;;;;;5042019;28;20203;-31
2022/06/25 12:06:11;;;;;;;1.60;1.30;;;;;;;;;;5041762;28;20223;-30
2022/06/25 12:08:38;;;;;;;1.67;1.02;;;;;;;;;;5047301;28;20214;-29
2022/06/25 12:11:06;;;;;;;1.40;1.10;;;;;;;;;;5044139;28;20432;-30
2022/06/25 12:13:33;;;;;;;1.77;1.15;;;;;;;;;;5045666;28;20221;-32
2022/06/25 12:16:01;;;;;;;1.40;1.30;;;;;;;;;;5049748;28;20259;-31
2022/06/25 12:18:35;;;;;;;1.90;1.25;;;;;;;;;;5038903;28;20208;-32
2022/06/25 12:21:04;;;;;;;1.23;1.13;;;;;;;;;;5038779;28;20203;-31
2022/06/25 12:23:31;;;;;;;0.93;0.93;;;;;;;;;;5033080;28;20207;-30
2022/06/25 12:25:58;;;;;;;1.13;0.90;;;;;;;;;;5028455;28;20257;-31
2022/06/25 12:30:54;;;;;;;2.15;1.20;;;;;;;;;;5042174;28;20213;-35
2022/06/25 12:33:29;;;;;;;1.10;1.10;;;;;;;;;;5041845;28;20220;-37
2022/06/25 12:35:57;;;;;;;0.90;0.90;;;;;;;;;;5040506;28;20226;-38
2022/06/25 12:38:25;;;;;;;1.30;1.20;;;;;;;;;;5047687;28;20207;-29
2022/06/25 12:40:52;;;;;;;1.23;1.08;;;;;;;;;;5046163;28;20214;-40
2022/06/25 12:43:21;;;;;;;1.52;1.20;;;;;;;;;;5054198;28;20208;-38
2022/06/25 12:45:53;;;;;;;1.20;1.20;;;;;;;;;;5037184;28;20263;-33
2022/06/25 12:48:26;;;;;;;1.40;1.30;;;;;;;;;;5040180;28;20205;-34
2022/06/25 12:50:53;;;;;;;2.35;1.40;;;;;;;;;;5050246;28;20207;-34
2022/06/25 12:53:20;;;;;;;1.30;1.20;;;;;;;;;;5056377;28;20223;-34
2022/06/25 12:55:50;;;;;;;1.55;1.13;;;;;;;;;;5056158;28;20209;-37
2022/06/25 12:58:18;;;;;;;1.58;1.25;;;;;;;;;;5041062;28;20264;-38
2022/06/25 13:00:46;;;;;;;1.73;1.50;;;;;;;;;;5037994;28;20219;-31
2022/06/25 13:03:14;;;;;;;1.65;1.17;;;;;;;;;;5040906;28;20278;-36
2022/06/25 13:05:41;;;;;;;2.15;1.23;;;;;;;;;;5049154;28;20208;-35
2022/06/25 13:08:08;;;;;;;1.55;1.35;;;;;;;;;;5035630;28;20213;-37
2022/06/25 13:10:35;;;;;;;1.38;1.27;;;;;;;;;;5035567;28;20304;-36
2022/06/25 13:13:04;;;;;;;1.30;1.20;;;;;;;;;;5036531;28;20216;-34
2022/06/25 13:15:31;;;;;;;1.10;1.05;;;;;;;;;;5043874;28;20221;-36
2022/06/25 13:17:58;;;;;;;1.27;0.93;;;;;;;;;;5034957;28;20231;-38
2022/06/25 13:20:25;;;;;;;2.00;1.17;;;;;;;;;;5038134;28;20238;-37
2022/06/25 13:22:52;;;;;;;1.10;1.00;;;;;;;;;;5046635;28;20195;-37
2022/06/25 13:25:19;;;;;;;0.95;0.95;;;;;;;;;;5055665;28;20206;-36
2022/06/25 13:27:47;;;;;;;2.00;1.40;;;;;;;;;;5046770;28;20232;-33
2022/06/25 13:30:15;;;;;;;1.63;1.40;;;;;;;;;;5041399;28;20207;-32
2022/06/25 13:32:42;;;;;;;1.15;1.05;;;;;;;;;;5052378;28;20297;-33
2022/06/25 13:35:10;;;;;;;0.98;0.98;;;;;;;;;;5038362;28;20232;-38
2022/06/25 13:37:37;;;;;;;1.10;1.00;;;;;;;;;;5043643;28;20232;-37
2022/06/25 13:40:05;;;;;;;1.15;0.90;;;;;;;;;;5035467;28;20213;-32
2022/06/25 13:42:32;;;;;;;1.13;1.00;;;;;;;;;;5045811;28;20201;-33
2022/06/25 13:44:59;;;;;;;1.67;1.10;;;;;;;;;;5034779;28;20206;-38
2022/06/25 13:47:27;;;;;;;3.03;1.17;;;;;;;;;;5047176;28;20234;-35
2022/06/25 13:49:55;;;;;;;1.55;1.20;;;;;;;;;;5039928;28;20510;-33
2022/06/25 13:52:22;;;;;;;1.52;1.27;;;;;;;;;;5034579;28;20215;-35
2022/06/25 13:54:49;;;;;;;1.85;1.20;;;;;;;;;;5035255;28;20228;-40
2022/06/25 13:57:16;;;;;;;1.15;1.02;;;;;;;;;;5040775;28;20228;-35
2022/06/25 13:59:43;;;;;;;1.60;1.00;;;;;;;;;;5045709;28;20209;-32
2022/06/25 14:02:10;;;;;;;2.10;1.10;;;;;;;;;;5051825;28;20214;-35
2022/06/25 14:04:40;;;;;;;1.55;1.00;;;;;;;;;;5033997;28;20212;-34
2022/06/25 14:07:07;;;;;;;2.88;1.17;;;;;;;;;;5034590;28;20243;-33
2022/06/25 14:09:34;;;;;;;1.23;1.10;;;;;;;;;;5035047;28;20203;-34
2022/06/25 14:12:01;;;;;;;1.20;1.02;;;;;;;;;;5038103;28;20284;-30
2022/06/25 14:14:30;;;;;;;1.10;1.10;;;;;;;;;;5041883;28;20223;-32
2022/06/25 14:16:57;;;;;;;1.30;1.20;;;;;;;;;;5046177;28;20225;-37
2022/06/25 14:19:24;;;;;;;1.48;1.00;;;;;;;;;;5041336;28;20208;-32
2022/06/25 14:21:53;;;;;;;2.13;1.20;;;;;;;;;;5040633;28;20234;-37
2022/06/25 14:27:01;;;;;;;1.10;1.10;;;;;;;;;;5032686;28;20285;-33
2022/06/25 14:29:29;;;;;;;0.95;0.95;;;;;;;;;;5050036;28;20533;-35
2022/06/25 14:31:56;;;;;;;2.58;1.05;;;;;;;;;;5045960;28;20214;-34
2022/06/25 14:34:24;;;;;;;1.48;1.00;;;;;;;;;;5047518;28;20290;-37
2022/06/25 14:42:22;;;;;;;1.20;1.20;;;;;;;;;;5041530;28;20203;-34
2022/06/25 14:44:49;;;;;;;1.17;1.10;;;;;;;;;;5053608;28;20291;-34
2022/06/25 14:47:16;;;;;;;1.80;1.05;;;;;;;;;;5051636;28;20224;-38
2022/06/25 14:49:44;;;;;;;1.10;0.88;;;;;;;;;;5041693;28;20213;-32
2022/06/25 14:52:12;;;;;;;2.55;1.08;;;;;;;;;;5047759;28;20203;-34
2022/06/25 14:54:39;;;;;;;1.17;1.08;;;;;;;;;;5053644;28;20233;-36
2022/06/25 14:57:06;;;;;;;1.05;1.00;;;;;;;;;;5048185;28;20236;-38
2022/06/25 14:59:35;;;;;;;1.30;1.10;;;;;;;;;;5036628;28;20211;-37
2022/06/25 15:02:02;;;;;;;1.42;1.00;;;;;;;;;;5041087;28;20236;-32
2022/06/25 15:04:29;;;;;;;0.93;0.93;;;;;;;;;;5044576;28;20215;-38
2022/06/25 15:06:56;;;;;;;1.40;1.30;;;;;;;;;;5041651;28;20223;-36
2022/06/25 15:09:25;;;;;;;1.10;1.05;;;;;;;;;;5034022;28;20216;-32
2022/06/25 15:11:52;;;;;;;1.33;1.23;;;;;;;;;;5035107;28;20221;-32
2022/06/25 15:14:19;;;;;;;0.95;0.95;;;;;;;;;;5038041;28;20222;-38
2022/06/25 15:16:46;;;;;;;2.17;1.10;;;;;;;;;;5041353;28;20236;-38